Time;durP1;ratioP1;P1;durP2;ratioP2;P2;SDS_P1;SDS_P2;PMS_P1;PMS_P2;Temp;Humidity;BMP_temperature;BMP_pressure;BME280_temperature;BME280_humidity;BME280_pressure;Samples;Min_cycle;Max_cycle;Signal;HPM_P1;HPM_P2
2023/09/23 00:02:15;;;;;;;1.80;0.68;;;13.40;99.90;;;;;;4934628;29;20030;-53
2023/09/23 00:04:42;;;;;;;4.75;0.73;;;13.40;99.90;;;;;;4934315;29;20027;-52
2023/09/23 00:07:09;;;;;;;4.53;0.70;;;13.50;99.90;;;;;;4934546;29;20024;-54
2023/09/23 00:09:36;;;;;;;1.45;0.60;;;13.40;99.90;;;;;;4934647;29;20044;-51
2023/09/23 00:12:02;;;;;;;2.92;0.82;;;13.40;99.90;;;;;;4934641;29;20024;-49
2023/09/23 00:14:28;;;;;;;1.10;0.68;;;13.40;99.90;;;;;;4934443;29;20030;-52
2023/09/23 00:16:54;;;;;;;1.60;0.70;;;13.30;99.90;;;;;;4934497;29;20481;-51
2023/09/23 00:19:20;;;;;;;0.80;0.80;;;13.30;99.90;;;;;;4933239;29;20123;-54
2023/09/23 00:21:45;;;;;;;2.63;1.10;;;13.30;99.90;;;;;;4934452;29;20046;-52
2023/09/23 00:24:13;;;;;;;0.65;0.65;;;13.30;99.90;;;;;;4934082;29;20035;-49
2023/09/23 00:26:39;;;;;;;1.42;0.90;;;13.30;99.90;;;;;;4934385;29;20035;-52
2023/09/23 00:29:04;;;;;;;2.78;1.00;;;13.30;99.90;;;;;;4934139;29;20483;-50
2023/09/23 00:31:30;;;;;;;1.17;0.60;;;13.30;99.90;;;;;;4934216;29;20032;-55
2023/09/23 00:33:56;;;;;;;0.50;0.50;;;13.30;99.90;;;;;;4933833;29;20032;-48
2023/09/23 00:36:22;;;;;;;0.63;0.63;;;13.40;99.90;;;;;;4933206;29;20032;-49
2023/09/23 00:38:47;;;;;;;1.98;0.80;;;13.40;99.90;;;;;;4934613;29;20019;-52
2023/09/23 00:41:13;;;;;;;1.05;0.95;;;13.40;99.90;;;;;;4934523;29;20032;-52
2023/09/23 00:43:40;;;;;;;2.72;0.93;;;13.40;99.90;;;;;;4933868;29;20050;-50
2023/09/23 00:46:06;;;;;;;1.85;0.70;;;13.30;99.90;;;;;;4934083;29;20031;-51
2023/09/23 00:48:38;;;;;;;0.60;0.60;;;13.20;99.90;;;;;;4936015;29;20024;-51
2023/09/23 00:51:07;;;;;;;2.13;0.40;;;13.20;99.90;;;;;;4936955;29;20054;-53
2023/09/23 00:53:35;;;;;;;1.10;0.93;;;13.20;99.90;;;;;;4937821;29;20398;-49
2023/09/23 00:56:02;;;;;;;1.40;0.70;;;13.20;99.90;;;;;;4937937;29;20035;-49
2023/09/23 00:58:28;;;;;;;3.67;0.73;;;13.10;99.90;;;;;;4938641;29;20059;-50
2023/09/23 01:00:55;;;;;;;0.50;0.50;;;13.00;99.90;;;;;;4937848;29;20059;-49
2023/09/23 01:03:21;;;;;;;1.10;1.10;;;12.90;99.90;;;;;;4937715;29;20051;-49
2023/09/23 01:05:48;;;;;;;2.22;0.70;;;12.90;99.90;;;;;;4938341;29;20487;-51
2023/09/23 01:08:20;;;;;;;0.68;0.68;;;12.80;99.90;;;;;;4937939;29;20048;-49
2023/09/23 01:10:51;;;;;;;1.30;0.63;;;12.80;99.90;;;;;;4937825;29;20020;-51
2023/09/23 01:13:24;;;;;;;1.73;0.82;;;12.80;99.90;;;;;;4937566;29;20495;-49
2023/09/23 01:15:51;;;;;;;1.08;0.70;;;12.70;99.90;;;;;;4937593;29;20479;-51
2023/09/23 01:18:17;;;;;;;22.63;11.52;;;12.80;99.90;;;;;;4937868;29;20031;-49
2023/09/23 01:20:45;;;;;;;3.08;1.55;;;12.80;99.90;;;;;;4937829;29;20495;-50
2023/09/23 01:23:12;;;;;;;4.70;2.03;;;12.80;99.90;;;;;;4936183;29;20024;-49
2023/09/23 01:25:38;;;;;;;2.08;0.50;;;12.70;99.90;;;;;;4937572;29;20024;-49
2023/09/23 01:28:08;;;;;;;2.45;0.77;;;12.70;99.90;;;;;;4937288;29;20108;-50
2023/09/23 01:30:35;;;;;;;0.98;0.80;;;12.70;99.90;;;;;;4937548;29;20031;-52
2023/09/23 01:33:04;;;;;;;0.98;0.70;;;12.60;99.90;;;;;;4937282;29;20028;-50
2023/09/23 01:35:31;;;;;;;0.80;0.80;;;12.60;99.90;;;;;;4937083;29;20423;-47
2023/09/23 01:37:58;;;;;;;2.58;0.70;;;12.60;99.90;;;;;;4937776;29;20447;-52
2023/09/23 01:40:25;;;;;;;2.13;0.70;;;12.50;99.90;;;;;;4937310;29;20028;-49
2023/09/23 01:42:51;;;;;;;0.75;0.60;;;12.50;99.90;;;;;;4937025;29;20232;-48
2023/09/23 01:45:19;;;;;;;1.02;0.75;;;12.40;99.90;;;;;;4937072;29;20171;-51
2023/09/23 01:47:45;;;;;;;0.93;0.60;;;12.40;99.90;;;;;;4937097;29;20510;-49
2023/09/23 01:50:11;;;;;;;2.72;1.30;;;12.30;99.90;;;;;;4937036;29;20071;-49
2023/09/23 01:52:37;;;;;;;0.50;0.50;;;12.30;99.90;;;;;;4936824;29;20032;-48
2023/09/23 01:55:05;;;;;;;0.70;0.70;;;12.20;99.90;;;;;;4936769;29;20443;-51
2023/09/23 01:57:33;;;;;;;0.55;0.50;;;12.20;99.90;;;;;;4937013;29;20028;-48
2023/09/23 02:00:01;;;;;;;0.60;0.60;;;12.20;99.90;;;;;;4935508;29;20079;-52
2023/09/23 02:02:27;;;;;;;0.63;0.60;;;12.20;99.90;;;;;;4934477;29;20028;-51
2023/09/23 02:04:53;;;;;;;1.38;0.82;;;12.20;99.90;;;;;;4934718;29;20399;-50
2023/09/23 02:07:19;;;;;;;0.88;0.70;;;12.30;99.90;;;;;;4936499;29;20103;-49
2023/09/23 02:09:45;;;;;;;0.80;0.65;;;12.30;99.90;;;;;;4935338;29;20452;-49
2023/09/23 02:12:12;;;;;;;0.80;0.40;;;12.40;99.90;;;;;;4936662;29;20103;-49
2023/09/23 02:14:39;;;;;;;3.22;0.63;;;12.40;99.90;;;;;;4936343;29;20027;-51
2023/09/23 02:17:05;;;;;;;2.05;0.82;;;12.40;99.90;;;;;;4936616;29;20035;-51
2023/09/23 02:19:30;;;;;;;0.50;0.50;;;12.40;99.90;;;;;;4936696;29;20112;-51
2023/09/23 02:21:56;;;;;;;0.70;0.60;;;12.50;99.90;;;;;;4936511;29;20036;-51
2023/09/23 02:24:22;;;;;;;1.85;0.60;;;12.40;99.90;;;;;;4936292;29;20034;-53
2023/09/23 02:26:48;;;;;;;1.58;0.45;;;12.50;99.90;;;;;;4936375;29;20036;-49
2023/09/23 02:29:14;;;;;;;2.47;0.70;;;12.50;99.90;;;;;;4936652;29;20024;-53
2023/09/23 02:31:46;;;;;;;1.70;0.75;;;12.40;99.90;;;;;;4936306;29;20538;-51
2023/09/23 02:34:11;;;;;;;1.02;0.60;;;12.40;99.90;;;;;;4936090;29;20087;-51
2023/09/23 02:36:38;;;;;;;0.65;0.60;;;12.40;99.90;;;;;;4936389;29;20031;-49
2023/09/23 02:39:05;;;;;;;0.57;0.57;;;12.40;99.90;;;;;;4936343;29;20442;-51
2023/09/23 02:41:32;;;;;;;1.88;0.60;;;12.40;99.90;;;;;;4936345;29;20415;-50
2023/09/23 02:43:57;;;;;;;16.95;2.15;;;12.50;99.90;;;;;;4935816;29;20034;-54
2023/09/23 02:46:23;;;;;;;0.90;0.80;;;12.50;99.90;;;;;;4934634;29;20118;-50
2023/09/23 02:48:48;;;;;;;2.08;0.82;;;12.40;99.90;;;;;;4936025;29;20513;-52
2023/09/23 02:51:14;;;;;;;1.35;0.68;;;12.40;99.90;;;;;;4936211;29;20020;-50
2023/09/23 02:53:40;;;;;;;1.88;0.95;;;12.40;99.90;;;;;;4935676;29;20107;-51
2023/09/23 02:56:07;;;;;;;1.27;0.90;;;12.30;99.90;;;;;;4936045;29;20020;-49
2023/09/23 02:58:32;;;;;;;2.05;0.77;;;12.30;99.90;;;;;;4936141;29;20038;-51
2023/09/23 03:00:58;;;;;;;1.33;0.77;;;12.30;99.90;;;;;;4936143;29;20403;-51
2023/09/23 03:03:24;;;;;;;2.15;0.95;;;12.30;99.90;;;;;;4936044;29;20063;-49
2023/09/23 03:05:57;;;;;;;1.42;1.23;;;12.20;99.90;;;;;;4936099;29;20510;-54
2023/09/23 03:08:23;;;;;;;1.08;1.00;;;12.20;99.90;;;;;;4936814;29;20059;-49
2023/09/23 03:10:51;;;;;;;4.43;1.20;;;12.20;99.90;;;;;;4936805;29;20027;-50
2023/09/23 03:13:21;;;;;;;1.10;1.10;;;12.10;99.90;;;;;;4935855;29;20024;-51
2023/09/23 03:15:52;;;;;;;2.92;1.00;;;12.10;99.90;;;;;;4936635;29;20027;-49
2023/09/23 03:18:33;;;;;;;1.65;1.13;;;12.10;99.90;;;;;;4936057;29;20031;-50
2023/09/23 03:21:08;;;;;;;2.60;1.70;;;12.00;99.90;;;;;;4935557;29;20539;-50
2023/09/23 03:23:37;;;;;;;2.33;1.23;;;12.00;99.90;;;;;;4935344;29;20652;-51
2023/09/23 03:26:04;;;;;;;1.10;1.10;;;12.00;99.90;;;;;;4935063;29;20023;-54
2023/09/23 03:28:30;;;;;;;5.85;1.23;;;12.00;99.90;;;;;;4935122;29;20405;-55
2023/09/23 03:31:00;;;;;;;1.15;1.10;;;12.00;99.90;;;;;;4935269;29;20027;-51
2023/09/23 03:33:27;;;;;;;1.33;1.33;;;12.00;99.90;;;;;;4935102;29;20421;-50
2023/09/23 03:35:53;;;;;;;2.63;1.25;;;11.90;99.90;;;;;;4934953;29;20031;-51
2023/09/23 03:38:19;;;;;;;3.50;1.88;;;11.90;99.90;;;;;;4935222;29;20027;-51
2023/09/23 03:40:52;;;;;;;5.60;1.65;;;11.90;99.90;;;;;;4935071;29;20031;-55
2023/09/23 03:43:18;;;;;;;3.90;1.30;;;11.80;99.90;;;;;;4934688;29;20028;-53
2023/09/23 03:45:44;;;;;;;1.83;1.60;;;11.80;99.90;;;;;;4934811;29;20416;-55
2023/09/23 03:48:10;;;;;;;4.30;1.77;;;11.80;99.90;;;;;;4934918;29;20027;-48
2023/09/23 03:50:36;;;;;;;1.52;1.20;;;11.70;99.90;;;;;;4934781;29;20036;-51
2023/09/23 03:53:02;;;;;;;2.33;1.52;;;11.70;99.90;;;;;;4934686;29;20024;-55
2023/09/23 03:55:28;;;;;;;2.53;1.55;;;11.70;99.90;;;;;;4934886;29;20053;-53
2023/09/23 03:57:54;;;;;;;4.82;1.95;;;11.60;99.90;;;;;;4934842;29;20461;-50
2023/09/23 04:00:20;;;;;;;2.95;1.58;;;11.60;99.90;;;;;;4934801;29;20051;-52
2023/09/23 04:02:47;;;;;;;1.70;1.60;;;11.50;99.90;;;;;;4934591;29;20304;-51
2023/09/23 04:05:16;;;;;;;3.28;1.73;;;11.50;99.90;;;;;;4934559;29;20106;-53
2023/09/23 04:07:50;;;;;;;1.77;1.52;;;11.50;99.90;;;;;;4934554;29;20039;-49
2023/09/23 04:10:23;;;;;;;2.17;2.03;;;11.50;99.90;;;;;;4934653;29;20625;-51
2023/09/23 04:12:49;;;;;;;2.83;2.00;;;11.50;99.90;;;;;;4934532;29;20027;-50
2023/09/23 04:15:15;;;;;;;1.52;1.45;;;11.40;99.90;;;;;;4934574;29;20115;-50
2023/09/23 04:17:41;;;;;;;2.80;1.70;;;11.40;99.90;;;;;;4933288;29;20477;-50
2023/09/23 04:20:11;;;;;;;7.82;2.20;;;11.30;99.90;;;;;;4934647;29;20525;-53
2023/09/23 04:22:37;;;;;;;3.22;2.00;;;11.30;99.90;;;;;;4934164;29;20567;-52
2023/09/23 04:25:07;;;;;;;4.28;1.98;;;11.20;99.90;;;;;;4933060;29;20042;-50
2023/09/23 04:27:33;;;;;;;2.85;2.53;;;11.20;99.90;;;;;;4933942;29;20032;-50
2023/09/23 04:30:01;;;;;;;1.60;1.50;;;11.20;99.90;;;;;;4934516;29;20027;-51
2023/09/23 04:32:27;;;;;;;2.60;2.10;;;11.10;99.90;;;;;;4934470;29;20395;-50
2023/09/23 04:34:53;;;;;;;2.15;1.90;;;11.10;99.90;;;;;;4933915;29;20040;-46
2023/09/23 04:37:18;;;;;;;2.30;2.08;;;11.00;99.90;;;;;;4934386;29;20324;-49
2023/09/23 04:39:44;;;;;;;5.53;2.20;;;11.00;99.90;;;;;;4934325;29;20035;-51
2023/09/23 04:42:11;;;;;;;2.63;2.42;;;11.00;99.90;;;;;;4934109;29;20484;-53
2023/09/23 04:44:37;;;;;;;5.82;2.75;;;11.00;99.90;;;;;;4933917;29;20028;-52
2023/09/23 04:47:02;;;;;;;2.85;2.55;;;11.00;99.90;;;;;;4934041;29;20024;-53
2023/09/23 04:49:28;;;;;;;9.07;2.30;;;11.00;99.90;;;;;;4934192;29;20027;-49
2023/09/23 04:51:53;;;;;;;4.13;2.72;;;10.90;99.90;;;;;;4933009;29;20484;-49
2023/09/23 04:54:19;;;;;;;2.92;2.47;;;10.90;99.90;;;;;;4933708;29;20039;-50
2023/09/23 04:56:44;;;;;;;6.50;2.78;;;10.90;99.90;;;;;;4934049;29;20079;-50
2023/09/23 04:59:12;;;;;;;2.65;2.45;;;11.00;99.90;;;;;;4934098;29;20028;-50
2023/09/23 05:01:37;;;;;;;2.88;2.63;;;10.90;99.90;;;;;;4934117;29;20031;-53
2023/09/23 05:04:08;;;;;;;2.50;2.30;;;11.00;99.90;;;;;;4933754;29;20031;-51
2023/09/23 05:06:36;;;;;;;3.58;2.58;;;11.00;99.90;;;;;;4934399;29;20460;-50
2023/09/23 05:09:02;;;;;;;5.97;2.88;;;11.00;99.90;;;;;;4933845;29;20034;-48
2023/09/23 05:11:27;;;;;;;5.05;2.80;;;11.00;99.90;;;;;;4932969;29;20028;-49
2023/09/23 05:13:53;;;;;;;6.40;2.75;;;11.00;99.90;;;;;;4933819;29;20131;-49
2023/09/23 05:16:19;;;;;;;6.85;2.83;;;10.90;99.90;;;;;;4934016;29;20034;-49
2023/09/23 05:18:48;;;;;;;2.95;2.45;;;10.90;99.90;;;;;;4933888;29;20106;-51
2023/09/23 05:21:14;;;;;;;9.20;2.72;;;10.90;99.90;;;;;;4933842;29;20135;-49
2023/09/23 05:23:41;;;;;;;2.70;2.50;;;10.90;99.90;;;;;;4933375;29;20107;-51
2023/09/23 05:26:07;;;;;;;14.93;3.00;;;11.00;99.90;;;;;;4933624;29;20032;-51
2023/09/23 05:28:33;;;;;;;3.38;3.08;;;11.00;99.90;;;;;;4932397;29;20023;-49
2023/09/23 05:30:59;;;;;;;3.25;2.83;;;11.00;99.90;;;;;;4933984;29;20498;-50
2023/09/23 05:33:24;;;;;;;6.07;3.10;;;11.00;99.90;;;;;;4933446;29;20508;-49
2023/09/23 05:35:51;;;;;;;2.45;2.25;;;11.00;99.90;;;;;;4935484;29;20092;-49
2023/09/23 05:38:19;;;;;;;2.58;2.38;;;11.00;99.90;;;;;;4937366;29;20026;-54
2023/09/23 05:40:46;;;;;;;3.00;2.80;;;11.10;99.90;;;;;;4937521;29;20019;-50
2023/09/23 05:43:11;;;;;;;2.90;2.70;;;11.10;99.90;;;;;;4937059;29;20414;-52
2023/09/23 05:45:37;;;;;;;3.40;2.60;;;11.10;99.90;;;;;;4937172;29;20024;-49
2023/09/23 05:48:04;;;;;;;3.42;2.33;;;11.10;99.90;;;;;;4935748;29;20030;-51
2023/09/23 05:50:30;;;;;;;3.13;2.83;;;11.10;99.90;;;;;;4937176;29;20416;-51
2023/09/23 05:52:56;;;;;;;9.13;2.67;;;11.00;99.90;;;;;;4936961;29;20026;-53
2023/09/23 05:55:22;;;;;;;3.05;2.42;;;11.00;99.90;;;;;;4937112;29;20020;-55
2023/09/23 05:57:49;;;;;;;3.83;2.83;;;11.00;99.90;;;;;;4936072;29;20512;-54
2023/09/23 06:00:19;;;;;;;5.63;2.50;;;11.00;99.90;;;;;;4936967;29;20032;-54
2023/09/23 06:02:45;;;;;;;8.10;3.03;;;11.10;99.90;;;;;;4935420;29;20032;-53
2023/09/23 06:05:11;;;;;;;4.40;2.90;;;11.10;99.90;;;;;;4936658;29;20115;-51
2023/09/23 06:07:37;;;;;;;2.72;2.53;;;11.20;99.90;;;;;;4936963;29;20110;-54
2023/09/23 06:10:04;;;;;;;5.32;2.97;;;11.20;99.90;;;;;;4936719;29;20587;-51
2023/09/23 06:12:30;;;;;;;4.60;2.50;;;11.30;99.90;;;;;;4936562;29;20044;-50
2023/09/23 06:14:57;;;;;;;8.95;2.80;;;11.30;99.90;;;;;;4936389;29;20458;-49
2023/09/23 06:17:24;;;;;;;2.78;2.58;;;11.40;99.90;;;;;;4936596;29;20045;-52
2023/09/23 06:19:49;;;;;;;2.35;2.20;;;11.40;99.90;;;;;;4936515;29;20079;-51
2023/09/23 06:22:15;;;;;;;3.78;2.83;;;11.50;99.90;;;;;;4936568;29;20032;-57
2023/09/23 06:24:40;;;;;;;2.65;2.45;;;11.50;99.90;;;;;;4936424;29;20491;-50
2023/09/23 06:27:05;;;;;;;2.60;2.40;;;11.60;99.90;;;;;;4936489;29;20027;-55
2023/09/23 06:29:31;;;;;;;6.70;2.92;;;11.70;99.90;;;;;;4934864;29;20028;-55
2023/09/23 06:31:56;;;;;;;4.07;3.05;;;11.70;99.90;;;;;;4936330;29;20056;-49
2023/09/23 06:34:23;;;;;;;2.72;2.53;;;11.70;99.90;;;;;;4935783;29;20091;-51
2023/09/23 06:36:48;;;;;;;4.65;3.20;;;11.70;99.90;;;;;;4936251;29;20083;-50
2023/09/23 06:39:14;;;;;;;2.80;2.60;;;11.80;99.90;;;;;;4936264;29;20483;-51
2023/09/23 06:41:39;;;;;;;2.72;2.42;;;12.00;99.90;;;;;;4936213;29;20031;-52
2023/09/23 06:44:07;;;;;;;4.32;2.45;;;12.10;99.90;;;;;;4935709;29;20485;-51
2023/09/23 06:46:32;;;;;;;2.97;2.63;;;12.30;99.90;;;;;;4935642;29;20024;-50
2023/09/23 06:48:58;;;;;;;5.85;2.30;;;12.70;99.90;;;;;;4935922;29;20032;-51
2023/09/23 06:51:24;;;;;;;2.92;1.95;;;13.20;99.90;;;;;;4935963;29;20045;-52
2023/09/23 06:53:49;;;;;;;2.67;2.10;;;13.60;99.90;;;;;;4935600;29;20034;-49
2023/09/23 06:56:15;;;;;;;2.60;2.03;;;14.40;99.90;;;;;;4935997;29;20453;-50
2023/09/23 06:58:41;;;;;;;2.22;1.70;;;15.00;99.90;;;;;;4934474;29;20027;-50
2023/09/23 07:01:07;;;;;;;4.50;1.77;;;15.80;99.90;;;;;;4935694;29;20384;-51
2023/09/23 07:03:32;;;;;;;5.45;1.52;;;16.60;99.90;;;;;;4935720;29;20027;-53
2023/09/23 07:05:58;;;;;;;2.83;1.75;;;17.40;99.90;;;;;;4936309;29;20036;-50
2023/09/23 07:08:23;;;;;;;2.83;1.20;;;17.90;99.90;;;;;;4935680;29;20023;-50
2023/09/23 07:10:50;;;;;;;2.38;1.70;;;18.40;99.90;;;;;;4935676;29;20082;-50
2023/09/23 07:13:15;;;;;;;1.90;1.50;;;19.00;99.90;;;;;;4935146;29;20023;-51
2023/09/23 07:15:41;;;;;;;2.67;1.35;;;19.50;99.90;;;;;;4935305;29;20020;-51
2023/09/23 07:18:08;;;;;;;4.47;1.85;;;20.20;99.90;;;;;;4935503;29;20111;-52
2023/09/23 07:20:34;;;;;;;5.05;1.90;;;20.50;99.90;;;;;;4935377;29;20039;-51
2023/09/23 07:23:00;;;;;;;2.17;1.30;;;20.60;99.90;;;;;;4935173;29;20038;-50
2023/09/23 07:25:26;;;;;;;2.20;1.65;;;20.90;99.90;;;;;;4935120;29;20476;-52
2023/09/23 07:27:53;;;;;;;8.05;2.03;;;21.00;99.90;;;;;;4934888;29;20024;-51
2023/09/23 07:30:18;;;;;;;3.30;1.48;;;21.40;99.90;;;;;;4935254;29;20031;-53
2023/09/23 07:32:44;;;;;;;2.55;1.38;;;21.70;99.90;;;;;;4934873;29;20369;-50
2023/09/23 07:35:09;;;;;;;4.00;0.95;;;22.20;99.90;;;;;;4934838;29;20032;-50
2023/09/23 07:37:35;;;;;;;1.92;1.10;;;22.70;99.70;;;;;;4935026;29;20032;-50
2023/09/23 07:40:00;;;;;;;1.00;0.90;;;23.20;98.70;;;;;;4935004;29;20484;-53
2023/09/23 07:42:26;;;;;;;5.10;1.55;;;22.80;98.10;;;;;;4934803;29;20024;-50
2023/09/23 07:44:52;;;;;;;1.70;1.10;;;22.40;98.00;;;;;;4934809;29;20410;-53
2023/09/23 07:47:17;;;;;;;4.35;1.42;;;21.10;99.40;;;;;;4934708;29;20091;-50
2023/09/23 07:49:43;;;;;;;5.80;2.00;;;20.10;99.90;;;;;;4934818;29;20031;-50
2023/09/23 07:52:09;;;;;;;2.25;1.67;;;19.10;99.90;;;;;;4934696;29;20031;-52
2023/09/23 07:54:37;;;;;;;3.42;1.88;;;18.40;99.90;;;;;;4934289;29;20024;-49
2023/09/23 07:57:03;;;;;;;3.03;1.27;;;17.80;99.90;;;;;;4934189;29;20019;-50
2023/09/23 07:59:28;;;;;;;2.55;1.73;;;17.30;99.90;;;;;;4934597;29;20035;-49
2023/09/23 08:01:54;;;;;;;5.75;2.60;;;16.90;99.90;;;;;;4933385;29;20087;-50
2023/09/23 08:04:19;;;;;;;6.45;2.10;;;16.50;99.90;;;;;;4934293;29;20351;-50
2023/09/23 08:06:45;;;;;;;2.13;1.90;;;16.10;99.90;;;;;;4934505;29;20447;-49
2023/09/23 08:09:10;;;;;;;2.45;2.25;;;15.90;99.90;;;;;;4934985;29;20060;-50
2023/09/23 08:11:36;;;;;;;5.15;1.90;;;15.60;99.90;;;;;;4934537;29;20148;-51
2023/09/23 08:14:01;;;;;;;2.80;1.75;;;15.60;99.90;;;;;;4934120;29;20032;-51
2023/09/23 08:16:27;;;;;;;2.95;1.40;;;15.50;99.90;;;;;;4934450;29;20040;-50
2023/09/23 08:18:52;;;;;;;3.28;1.40;;;15.60;99.90;;;;;;4934541;29;20484;-53
2023/09/23 08:21:18;;;;;;;4.15;2.92;;;15.60;99.90;;;;;;4934442;29;20036;-50
2023/09/23 08:23:44;;;;;;;4.60;2.00;;;15.80;99.90;;;;;;4933993;29;20451;-53
2023/09/23 08:26:10;;;;;;;2.17;1.92;;;15.70;99.90;;;;;;4934379;29;20063;-49
2023/09/23 08:28:36;;;;;;;10.07;2.30;;;15.70;99.90;;;;;;4934130;29;20056;-50
2023/09/23 08:31:02;;;;;;;5.28;2.00;;;15.80;99.90;;;;;;4934284;29;20547;-50
2023/09/23 08:33:27;;;;;;;5.53;1.70;;;15.80;99.90;;;;;;4933884;29;20032;-50
2023/09/23 08:35:53;;;;;;;4.28;1.90;;;15.80;99.90;;;;;;4933982;29;20062;-50
2023/09/23 08:38:19;;;;;;;2.20;2.00;;;15.70;99.90;;;;;;4934194;29;20023;-49
2023/09/23 08:40:45;;;;;;;3.97;2.22;;;15.70;99.90;;;;;;4934265;29;20052;-52
2023/09/23 08:43:11;;;;;;;3.25;2.42;;;15.60;99.90;;;;;;4934164;29;20103;-51
2023/09/23 08:45:43;;;;;;;3.75;2.10;;;15.60;99.90;;;;;;4934176;29;20099;-50
2023/09/23 08:48:11;;;;;;;7.07;2.42;;;15.50;99.90;;;;;;4934134;29;20066;-50
2023/09/23 08:50:40;;;;;;;3.50;2.15;;;15.50;99.90;;;;;;4933881;29;20487;-49
2023/09/23 08:53:07;;;;;;;5.15;2.20;;;15.40;99.90;;;;;;4933898;29;20094;-52
2023/09/23 08:55:34;;;;;;;3.42;2.22;;;15.40;99.90;;;;;;4934249;29;20028;-50
2023/09/23 08:58:03;;;;;;;3.53;1.83;;;15.50;99.90;;;;;;4934039;29;20403;-49
2023/09/23 09:00:29;;;;;;;2.30;2.08;;;15.70;99.90;;;;;;4932723;29;20400;-51
2023/09/23 09:02:55;;;;;;;3.15;2.15;;;15.70;99.90;;;;;;4933735;29;20056;-51
2023/09/23 09:05:21;;;;;;;6.40;2.28;;;15.70;99.90;;;;;;4934183;29;20032;-52
2023/09/23 09:07:46;;;;;;;5.53;1.92;;;15.80;99.90;;;;;;4934488;29;20078;-53
2023/09/23 09:10:12;;;;;;;5.65;2.85;;;15.90;99.90;;;;;;4938038;29;20024;-50
2023/09/23 09:12:37;;;;;;;10.93;3.90;;;16.00;99.90;;;;;;4937609;29;20032;-52
2023/09/23 09:15:03;;;;;;;5.95;2.70;;;16.00;99.90;;;;;;4937720;29;20031;-55
2023/09/23 09:17:33;;;;;;;2.78;1.80;;;16.40;99.90;;;;;;4937626;29;20399;-56
2023/09/23 09:20:08;;;;;;;2.58;2.03;;;16.70;99.90;;;;;;4937702;29;20399;-50
2023/09/23 09:22:34;;;;;;;;;;;16.70;99.90;;;;;;4938019;29;20035;-52
2023/09/23 09:25:01;;;;;;;5.57;2.13;;;16.90;99.90;;;;;;4937219;29;19906;-51
2023/09/23 09:27:28;;;;;;;3.00;1.67;;;17.10;99.90;;;;;;4937731;29;20374;-51
2023/09/23 09:29:54;;;;;;;5.03;1.80;;;17.20;99.90;;;;;;4937233;29;20067;-51
2023/09/23 09:32:26;;;;;;;1.95;1.63;;;17.40;99.90;;;;;;4937333;29;20037;-51
2023/09/23 09:34:54;;;;;;;12.65;2.00;;;17.40;99.90;;;;;;4936785;29;20051;-52
2023/09/23 09:37:25;;;;;;;5.28;1.92;;;17.50;99.90;;;;;;4937321;29;20089;-51
2023/09/23 09:39:55;;;;;;;6.80;1.88;;;17.70;99.90;;;;;;4937378;29;20054;-51
2023/09/23 09:42:30;;;;;;;3.03;1.73;;;17.50;99.90;;;;;;4937117;29;20028;-50
2023/09/23 09:44:57;;;;;;;5.43;2.05;;;17.30;99.90;;;;;;4936898;29;20031;-50
2023/09/23 09:47:23;;;;;;;1.70;1.60;;;17.10;99.90;;;;;;4936964;29;20031;-51
2023/09/23 09:49:52;;;;;;;2.13;1.60;;;17.10;99.90;;;;;;4937133;29;20039;-55
2023/09/23 09:52:22;;;;;;;3.13;1.48;;;17.10;99.90;;;;;;4937226;29;20411;-53
2023/09/23 09:54:55;;;;;;;2.88;1.73;;;17.00;99.90;;;;;;4936842;29;20078;-53
2023/09/23 09:57:26;;;;;;;3.35;1.75;;;17.10;99.90;;;;;;4937253;29;20075;-50
2023/09/23 09:59:59;;;;;;;1.80;1.52;;;17.10;99.90;;;;;;4937180;29;20400;-51
2023/09/23 10:02:24;;;;;;;4.47;2.10;;;17.30;99.90;;;;;;4936840;29;20035;-51
2023/09/23 10:04:51;;;;;;;4.72;1.65;;;17.10;99.90;;;;;;4936670;29;20031;-53
2023/09/23 10:07:17;;;;;;;1.08;1.05;;;17.20;99.90;;;;;;4936699;29;20038;-50
2023/09/23 10:09:53;;;;;;;2.83;1.48;;;17.20;99.90;;;;;;4936694;29;20028;-47
2023/09/23 10:12:25;;;;;;;3.63;1.60;;;17.20;99.90;;;;;;4936667;29;20396;-50
2023/09/23 10:14:54;;;;;;;1.85;1.45;;;17.20;99.90;;;;;;4936260;29;20538;-49
2023/09/23 10:17:30;;;;;;;3.95;1.45;;;17.00;99.90;;;;;;4937060;29;20107;-50
2023/09/23 10:19:56;;;;;;;2.60;1.35;;;17.00;99.90;;;;;;4936031;29;20027;-52
2023/09/23 10:22:24;;;;;;;5.03;1.50;;;17.10;99.90;;;;;;4936327;29;20580;-50
2023/09/23 10:25:06;;;;;;;2.63;1.58;;;17.10;99.90;;;;;;4935914;29;20034;-54
2023/09/23 10:27:33;;;;;;;1.80;0.98;;;17.20;99.90;;;;;;4936144;29;20051;-50
2023/09/23 10:30:00;;;;;;;2.08;1.20;;;17.40;99.90;;;;;;4936356;29;20074;-51
2023/09/23 10:32:26;;;;;;;3.35;1.20;;;17.50;99.90;;;;;;4936310;29;20020;-52
2023/09/23 10:34:55;;;;;;;7.03;1.80;;;17.40;99.90;;;;;;4936066;29;20514;-53
2023/09/23 10:37:32;;;;;;;3.83;1.85;;;17.30;99.90;;;;;;4936343;29;20404;-49
2023/09/23 10:40:26;;;;;;;3.17;1.70;;;17.20;99.90;;;;;;4936264;29;20032;-49
2023/09/23 10:42:51;;;;;;;1.95;1.35;;;17.20;99.90;;;;;;4935682;29;20483;-54
2023/09/23 10:45:17;;;;;;;4.63;1.63;;;17.20;99.90;;;;;;4936130;29;20027;-51
2023/09/23 10:47:46;;;;;;;3.72;2.28;;;17.40;99.90;;;;;;4936610;29;20055;-52
2023/09/23 10:50:11;;;;;;;3.55;2.10;;;17.40;99.90;;;;;;4936135;29;20028;-51
2023/09/23 10:52:37;;;;;;;3.55;1.42;;;17.40;99.90;;;;;;4935942;29;20242;-50
2023/09/23 10:55:04;;;;;;;3.05;2.08;;;17.30;99.90;;;;;;4935608;29;20476;-52
2023/09/23 10:57:30;;;;;;;6.78;1.63;;;17.10;99.90;;;;;;4935810;29;20075;-49
2023/09/23 10:59:57;;;;;;;4.07;1.75;;;17.10;99.90;;;;;;4935937;29;20028;-51
2023/09/23 11:02:25;;;;;;;1.48;1.23;;;17.00;99.90;;;;;;4935710;29;20027;-52
2023/09/23 11:04:53;;;;;;;5.70;1.70;;;16.90;99.90;;;;;;4935493;29;20101;-50
2023/09/23 11:07:20;;;;;;;3.80;1.83;;;16.90;99.90;;;;;;4934351;29;20028;-51
2023/09/23 11:09:46;;;;;;;4.13;1.80;;;17.10;99.90;;;;;;4935785;29;20016;-50
2023/09/23 11:12:13;;;;;;;1.63;0.98;;;17.20;99.90;;;;;;4935443;29;20075;-49
2023/09/23 11:14:43;;;;;;;2.85;1.30;;;17.30;99.90;;;;;;4926463;29;20044;-50
2023/09/23 11:17:19;;;;;;;1.25;1.15;;;17.50;99.90;;;;;;4916562;29;20028;-49
2023/09/23 11:19:55;;;;;;;4.45;1.23;;;17.60;99.90;;;;;;4916407;29;20028;-49
2023/09/23 11:22:29;;;;;;;1.45;1.10;;;17.50;99.90;;;;;;4916439;29;20043;-49
2023/09/23 11:24:56;;;;;;;2.38;1.75;;;17.70;99.90;;;;;;4915982;29;20032;-48
2023/09/23 11:27:23;;;;;;;2.40;1.30;;;17.80;99.90;;;;;;4914941;29;20067;-53
2023/09/23 11:29:49;;;;;;;3.10;1.45;;;17.80;99.90;;;;;;4925476;29;20104;-49
2023/09/23 11:32:23;;;;;;;1.05;1.05;;;17.90;99.90;;;;;;4915190;29;20159;-48
2023/09/23 11:34:49;;;;;;;2.20;1.67;;;18.00;99.90;;;;;;4915371;29;20035;-49
2023/09/23 11:37:14;;;;;;;4.13;1.33;;;18.00;99.90;;;;;;4914042;29;20028;-53
2023/09/23 11:39:40;;;;;;;86.35;57.65;;;17.90;99.90;;;;;;4913482;29;20035;-50
2023/09/23 11:42:05;;;;;;;20.85;14.82;;;18.00;99.90;;;;;;4915568;29;20036;-49
2023/09/23 11:44:31;;;;;;;1.83;1.35;;;18.00;99.90;;;;;;4915423;29;20043;-51
2023/09/23 11:46:56;;;;;;;2.28;1.20;;;17.90;99.90;;;;;;4914483;29;20040;-50
2023/09/23 11:49:22;;;;;;;5.97;1.38;;;17.90;99.90;;;;;;4914727;29;20028;-50
2023/09/23 11:51:48;;;;;;;3.65;1.10;;;17.90;99.90;;;;;;4915505;29;20083;-55
2023/09/23 11:54:14;;;;;;;3.90;1.85;;;17.90;99.90;;;;;;4915339;29;20028;-53
2023/09/23 11:56:39;;;;;;;2.42;1.40;;;18.00;99.90;;;;;;4916242;29;20361;-53
2023/09/23 11:59:05;;;;;;;3.55;1.55;;;18.00;99.90;;;;;;4915676;29;20039;-55
2023/09/23 12:01:31;;;;;;;2.08;1.10;;;18.00;99.90;;;;;;4915655;29;20561;-48
2023/09/23 12:03:58;;;;;;;2.38;1.40;;;18.00;99.90;;;;;;4915311;29;20032;-50
2023/09/23 12:06:28;;;;;;;2.10;1.00;;;18.00;99.90;;;;;;4915593;29;20050;-52
2023/09/23 12:08:53;;;;;;;3.08;1.05;;;18.10;99.90;;;;;;4915594;29;20020;-51
2023/09/23 12:11:21;;;;;;;2.70;1.13;;;18.00;99.90;;;;;;4915595;29;20099;-51
2023/09/23 12:13:53;;;;;;;7.10;1.50;;;18.10;99.90;;;;;;4914898;29;20481;-49
2023/09/23 12:16:18;;;;;;;2.95;1.30;;;18.10;99.90;;;;;;4915397;29;20021;-51
2023/09/23 12:18:47;;;;;;;1.42;1.23;;;18.10;99.90;;;;;;4915522;29;20095;-53
2023/09/23 12:21:13;;;;;;;2.35;1.52;;;18.10;99.90;;;;;;4915820;29;20055;-51
2023/09/23 12:23:40;;;;;;;4.82;1.70;;;18.20;99.90;;;;;;4915026;29;20032;-49
2023/09/23 12:26:06;;;;;;;1.63;1.52;;;18.30;99.90;;;;;;4915193;29;20025;-49
2023/09/23 12:28:31;;;;;;;6.20;1.80;;;18.20;99.90;;;;;;4915029;29;20035;-51
2023/09/23 12:30:57;;;;;;;3.03;1.35;;;18.30;99.90;;;;;;4915212;29;20039;-51
2023/09/23 12:33:23;;;;;;;2.17;1.20;;;18.40;99.90;;;;;;4915022;29;20559;-51
2023/09/23 12:35:48;;;;;;;1.50;1.40;;;18.40;99.90;;;;;;4915156;29;20043;-52
2023/09/23 12:38:14;;;;;;;2.50;1.65;;;18.40;99.90;;;;;;4915180;29;20028;-53
2023/09/23 12:40:39;;;;;;;3.10;1.92;;;18.40;99.90;;;;;;4913945;29;20498;-53
2023/09/23 12:43:05;;;;;;;5.35;1.45;;;18.30;99.90;;;;;;4915598;29;20472;-51
2023/09/23 12:45:30;;;;;;;1.95;1.60;;;18.40;99.90;;;;;;4918988;29;20453;-55